Terminal Aerodrome Forecast
Issued by NWS Central Illinois

Home | Current Version | Previous Version | Text Only | Print | Product List | Glossary On
Versions: 1 2 3 4 5 6 7 8 9 10 11 12 13 14
000
FTUS43 KILX 231700 RRA
TAFSPI
TAF
KSPI 231743Z 2318/2418 19008KT P6SM BKN150
     FM232200 20008KT P6SM VCSH BKN060
     FM240400 VRB03KT P6SM VCSH BKN025
     FM240800 VRB03KT 4SM BR SCT008 BKN025
     FM241600 25005KT P6SM SCT025=

USA.gov is the U.S. government's official web portal to all federal, state and local government web resources and services.